createdAt,value
2022-11-16T00:00:12.127Z,10.5
2022-11-16T00:02:38.219Z,10.5
2022-11-16T00:05:03.349Z,10.5
2022-11-16T00:07:28.468Z,10.5
2022-11-16T00:09:53.579Z,10.4
2022-11-16T00:12:18.687Z,10.4
2022-11-16T00:14:43.803Z,10.4
2022-11-16T00:17:08.917Z,10.4
2022-11-16T00:19:35.014Z,10.4
2022-11-16T00:22:01.104Z,10.4
2022-11-16T00:24:27.223Z,10.4
2022-11-16T00:26:53.305Z,10.4
2022-11-16T00:29:19.392Z,10.4
2022-11-16T00:31:45.507Z,10.4
2022-11-16T00:34:11.593Z,10.4
2022-11-16T00:36:37.680Z,10.4
2022-11-16T00:39:02.786Z,10.4
2022-11-16T00:41:28.898Z,10.4
2022-11-16T00:43:54.976Z,10.4
2022-11-16T00:46:21.075Z,10.3
2022-11-16T00:48:47.180Z,10.4
2022-11-16T00:51:13.285Z,10.4
2022-11-16T00:53:39.372Z,10.4
2022-11-16T00:56:05.463Z,10.4
2022-11-16T00:58:31.559Z,10.4
2022-11-16T01:00:57.658Z,10.4
2022-11-16T01:03:23.748Z,10.4
2022-11-16T01:05:48.884Z,10.4
2022-11-16T01:08:13.981Z,10.4
2022-11-16T01:10:40.075Z,10.4
2022-11-16T01:13:06.171Z,10.4
2022-11-16T01:15:32.266Z,10.3
2022-11-16T01:17:58.357Z,10.3
2022-11-16T01:20:24.446Z,10.3
2022-11-16T01:22:50.561Z,10.3
2022-11-16T01:25:16.649Z,10.3
2022-11-16T01:27:42.766Z,10.3
2022-11-16T01:30:08.839Z,10.3
2022-11-16T01:32:34.936Z,10.3
2022-11-16T01:35:01.217Z,10.3
2022-11-16T01:37:27.130Z,10.3
2022-11-16T01:39:52.250Z,10.4
2022-11-16T01:42:18.346Z,10.3
2022-11-16T01:44:44.430Z,10.4
2022-11-16T01:47:10.532Z,10.4
2022-11-16T01:49:36.618Z,10.4
2022-11-16T01:52:02.722Z,10.4
2022-11-16T01:54:28.805Z,10.4
2022-11-16T01:56:53.945Z,10.4
2022-11-16T01:59:19.040Z,10.4
2022-11-16T02:01:44.223Z,10.4
2022-11-16T02:04:09.274Z,10.4
2022-11-16T02:06:34.406Z,10.4
2022-11-16T02:08:59.516Z,10.4
2022-11-16T02:11:24.629Z,10.3
2022-11-16T02:13:49.736Z,10.3
2022-11-16T02:16:15.852Z,10.3
2022-11-16T02:18:41.925Z,10.3
2022-11-16T02:21:08.042Z,10.3
2022-11-16T02:23:34.117Z,10.3
2022-11-16T02:26:00.215Z,10.3
2022-11-16T02:28:26.323Z,10.3
2022-11-16T02:30:52.417Z,10.3
2022-11-16T02:33:18.514Z,10.3
2022-11-16T02:35:44.610Z,10.3
2022-11-16T02:38:10.684Z,10.3
2022-11-16T02:40:36.803Z,10.3
2022-11-16T02:43:02.890Z,10.2
2022-11-16T02:45:27.993Z,10.2
2022-11-16T02:47:54.098Z,10.2
2022-11-16T02:50:20.192Z,10.2
2022-11-16T02:52:46.287Z,10.2
2022-11-16T02:55:12.380Z,10.2
2022-11-16T02:57:38.470Z,10.2
2022-11-16T03:00:04.576Z,10.2
2022-11-16T03:02:29.691Z,10.2
2022-11-16T03:04:54.815Z,10.2
2022-11-16T03:07:20.896Z,10.2
2022-11-16T03:09:46.994Z,10.2
2022-11-16T03:12:13.094Z,10.2
2022-11-16T03:14:39.194Z,10.2
2022-11-16T03:17:05.289Z,10.2
2022-11-16T03:19:31.376Z,10.2
2022-11-16T03:21:57.505Z,10.2
2022-11-16T03:24:23.571Z,10.2
2022-11-16T03:26:49.656Z,10.2
2022-11-16T03:29:15.761Z,10.2
2022-11-16T03:31:41.878Z,10.2
2022-11-16T03:34:07.966Z,10.2
2022-11-16T03:36:33.061Z,10.2
2022-11-16T03:38:59.167Z,10.2
2022-11-16T03:41:25.249Z,10.2
2022-11-16T03:43:51.357Z,10.2
2022-11-16T03:46:17.451Z,10.2
2022-11-16T03:48:43.543Z,10.2
2022-11-16T03:51:09.648Z,10.2
2022-11-16T03:53:34.763Z,10.2
2022-11-16T03:55:59.869Z,10.2
2022-11-16T03:58:25.950Z,10.2
2022-11-16T04:00:52.058Z,10.2
2022-11-16T04:03:18.153Z,10.2
2022-11-16T04:05:44.254Z,10.2
2022-11-16T04:08:10.357Z,10.2
2022-11-16T04:10:36.451Z,10.2
2022-11-16T04:13:02.531Z,10.2
2022-11-16T04:15:28.638Z,10.2
2022-11-16T04:17:54.724Z,10.2
2022-11-16T04:20:20.829Z,10.2
2022-11-16T04:22:46.915Z,10.2
2022-11-16T04:25:13.026Z,10.2
2022-11-16T04:27:38.107Z,10.2
2022-11-16T04:30:04.214Z,10.2
2022-11-16T04:32:30.312Z,10.2
2022-11-16T04:34:56.410Z,10.2
2022-11-16T04:37:22.563Z,10.2
2022-11-16T04:39:48.620Z,10.2
2022-11-16T04:42:14.697Z,10.2
2022-11-16T04:44:39.814Z,10.2
2022-11-16T04:47:04.932Z,10.2
2022-11-16T04:49:30.056Z,10.2
2022-11-16T04:51:55.168Z,10.2
2022-11-16T04:54:21.278Z,10.2
2022-11-16T04:56:47.368Z,10.2
2022-11-16T04:59:13.456Z,10.3
2022-11-16T05:01:39.543Z,10.3
2022-11-16T05:04:05.648Z,10.3
2022-11-16T05:06:31.732Z,10.3
2022-11-16T05:08:57.826Z,10.3
2022-11-16T05:11:23.935Z,10.3
2022-11-16T05:13:50.034Z,10.3
2022-11-16T05:16:16.127Z,10.3
2022-11-16T05:18:42.202Z,10.3
2022-11-16T05:21:08.312Z,10.3
2022-11-16T05:23:33.425Z,10.3
2022-11-16T05:25:59.508Z,10.3
2022-11-16T05:28:25.608Z,10.3
2022-11-16T05:30:51.717Z,10.3
2022-11-16T05:33:17.804Z,10.3
2022-11-16T05:35:43.900Z,10.3
2022-11-16T05:38:10.006Z,10.3
2022-11-16T05:40:36.089Z,10.3
2022-11-16T05:43:02.179Z,10.3
2022-11-16T05:45:28.288Z,10.3
2022-11-16T05:47:54.372Z,10.3
2022-11-16T05:50:20.479Z,10.3
2022-11-16T05:52:46.587Z,10.3
2022-11-16T05:55:11.677Z,10.3
2022-11-16T05:57:37.773Z,10.3
2022-11-16T06:00:03.854Z,10.3
2022-11-16T06:02:29.971Z,10.3
2022-11-16T06:09:48.261Z,10.2
2022-11-16T06:12:14.351Z,10.2
2022-11-16T06:14:40.452Z,10.2
2022-11-16T06:21:58.724Z,10.1
2022-11-16T06:31:42.138Z,10
2022-11-16T06:34:08.229Z,10
2022-11-16T06:36:34.329Z,10.1
2022-11-16T06:39:00.463Z,10.1
2022-11-16T06:41:26.505Z,10
2022-11-16T06:43:52.599Z,10
2022-11-16T06:46:18.695Z,10.1
2022-11-16T06:48:44.794Z,10.1
2022-11-16T06:51:10.939Z,10.1
2022-11-16T06:53:36.984Z,10.1
2022-11-16T06:56:03.100Z,10.1
2022-11-16T06:58:28.186Z,10.1
2022-11-16T07:00:54.300Z,10.2
2022-11-16T07:03:20.413Z,10.2
2022-11-16T07:05:46.488Z,10.2
2022-11-16T07:08:12.580Z,10.2
2022-11-16T07:10:38.668Z,10.2
2022-11-16T07:13:04.781Z,10.2
2022-11-16T07:15:30.858Z,10.2
2022-11-16T07:17:56.965Z,10.3
2022-11-16T07:20:23.090Z,10.3
2022-11-16T07:22:49.153Z,10.3
2022-11-16T07:25:15.251Z,10.3
2022-11-16T07:27:41.337Z,10.3
2022-11-16T07:30:06.447Z,10.3
2022-11-16T07:32:32.585Z,10.3
2022-11-16T07:34:58.650Z,10.4
2022-11-16T07:37:24.741Z,10.4
2022-11-16T07:39:50.829Z,10.5
2022-11-16T07:42:16.989Z,10.5
2022-11-16T07:44:43.067Z,10.6
2022-11-16T07:47:09.126Z,10.6
2022-11-16T07:49:35.765Z,10.7
2022-11-16T07:52:01.326Z,10.7
2022-11-16T07:54:27.442Z,10.7
2022-11-16T07:56:53.498Z,10.7
2022-11-16T07:59:19.596Z,10.8
2022-11-16T08:01:44.770Z,10.8
2022-11-16T08:04:10.794Z,10.9
2022-11-16T08:06:36.924Z,10.9
2022-11-16T08:09:03.020Z,10.9
2022-11-16T08:11:29.153Z,11
2022-11-16T08:13:55.188Z,11.1
2022-11-16T08:16:21.280Z,11.2
2022-11-16T08:18:47.376Z,11.2
2022-11-16T08:21:13.521Z,11.3
2022-11-16T08:23:39.577Z,11.4
2022-11-16T08:26:05.674Z,11.5
2022-11-16T08:28:31.752Z,11.5
2022-11-16T08:30:58.000Z,11.6
2022-11-16T08:33:22.979Z,11.7
2022-11-16T08:35:49.068Z,11.7
2022-11-16T08:38:15.148Z,11.7
2022-11-16T08:40:41.251Z,11.8
2022-11-16T08:43:07.351Z,11.9
2022-11-16T08:45:33.458Z,12
2022-11-16T08:47:58.561Z,12.1
2022-11-16T08:50:24.708Z,12.1
2022-11-16T08:52:50.769Z,12.1
2022-11-16T08:55:16.845Z,12.2
2022-11-16T08:57:42.949Z,12.3
2022-11-16T09:00:09.052Z,12.3
2022-11-16T09:02:35.143Z,12.4
2022-11-16T09:05:01.241Z,12.5
2022-11-16T09:07:27.334Z,12.5
2022-11-16T09:09:53.488Z,12.6
2022-11-16T09:12:19.531Z,12.6
2022-11-16T09:14:45.608Z,12.6
2022-11-16T09:17:11.722Z,12.8
2022-11-16T09:19:36.825Z,12.9
2022-11-16T09:22:02.921Z,13
2022-11-16T09:24:29.007Z,13
2022-11-16T09:26:55.127Z,13.1
2022-11-16T09:29:21.200Z,13.1
2022-11-16T09:31:47.287Z,13.1
2022-11-16T09:34:13.386Z,13.1
2022-11-16T09:36:39.475Z,13.2
2022-11-16T09:39:05.582Z,13.4
2022-11-16T09:41:31.700Z,13.5
2022-11-16T09:46:23.872Z,13.5
2022-11-16T09:48:49.972Z,13.5
2022-11-16T09:51:15.077Z,13.5
2022-11-16T09:53:41.195Z,13.3
2022-11-16T09:56:07.275Z,13.2
2022-11-16T09:58:33.394Z,13.2
2022-11-16T10:00:59.461Z,13.2
2022-11-16T10:03:25.557Z,13.2
2022-11-16T10:05:51.647Z,13.3
2022-11-16T10:08:17.721Z,13.4
2022-11-16T10:10:43.846Z,13.5
2022-11-16T10:13:09.924Z,13.6
2022-11-16T10:15:36.026Z,13.7
2022-11-16T10:18:02.109Z,13.6
2022-11-16T10:20:28.229Z,13.6
2022-11-16T10:22:53.332Z,13.6
2022-11-16T10:25:19.429Z,13.6
2022-11-16T10:27:45.518Z,13.6
2022-11-16T10:30:11.629Z,13.5
2022-11-16T10:32:37.784Z,13.6
2022-11-16T10:35:03.809Z,13.6
2022-11-16T10:37:29.895Z,13.6
2022-11-16T10:39:56.003Z,13.6
2022-11-16T10:42:22.099Z,13.6
2022-11-16T10:44:48.183Z,13.8
2022-11-16T10:47:14.294Z,13.8
2022-11-16T10:49:40.386Z,13.9
2022-11-16T10:52:06.469Z,14
2022-11-16T10:54:31.592Z,13.9
2022-11-16T10:56:57.671Z,13.9
2022-11-16T10:59:23.796Z,13.7
2022-11-16T11:01:49.880Z,13.5
2022-11-16T11:04:15.967Z,13.5
2022-11-16T11:06:42.100Z,13.5
2022-11-16T11:09:08.153Z,13.4
2022-11-16T11:11:34.270Z,13.4
2022-11-16T11:14:00.337Z,13.4
2022-11-16T11:16:26.439Z,13.3
2022-11-16T11:18:52.547Z,13.3
2022-11-16T11:21:18.664Z,13.3
2022-11-16T11:23:44.764Z,13.3
2022-11-16T11:26:09.844Z,13.3
2022-11-16T11:28:35.943Z,13.3
2022-11-16T11:31:02.032Z,13.4
2022-11-16T11:33:28.113Z,13.3
2022-11-16T11:35:54.217Z,13.3
2022-11-16T11:38:20.311Z,13.4
2022-11-16T11:40:46.397Z,13.6
2022-11-16T11:43:12.503Z,13.6
2022-11-16T11:45:38.602Z,13.7
2022-11-16T11:48:04.699Z,13.8
2022-11-16T11:50:30.785Z,13.8
2022-11-16T11:52:56.887Z,14
2022-11-16T11:55:22.977Z,14.2
2022-11-16T11:57:48.098Z,14.3
2022-11-16T12:00:14.185Z,14.3
2022-11-16T12:02:40.298Z,14.3
2022-11-16T12:05:06.385Z,14.3
2022-11-16T12:07:32.468Z,14.5
2022-11-16T12:09:58.559Z,14.5
2022-11-16T12:12:24.664Z,14.6
2022-11-16T12:14:50.770Z,14.5
2022-11-16T12:17:16.856Z,14.5
2022-11-16T12:19:42.943Z,14.3
2022-11-16T12:22:09.041Z,14.2
2022-11-16T12:24:35.141Z,14.1
2022-11-16T12:27:01.249Z,14.2
2022-11-16T12:29:26.340Z,14.2
2022-11-16T12:31:52.455Z,14.3
2022-11-16T12:34:18.534Z,14.3
2022-11-16T12:36:44.623Z,14.4
2022-11-16T12:39:10.721Z,14.6
2022-11-16T12:41:36.828Z,14.5
2022-11-16T12:44:02.915Z,14.4
2022-11-16T12:46:29.031Z,14.2
2022-11-16T12:48:55.130Z,14.3
2022-11-16T12:51:21.222Z,14.3
2022-11-16T12:53:47.307Z,14.2
2022-11-16T12:56:13.414Z,14.2
2022-11-16T12:58:39.495Z,14.3
2022-11-16T13:01:04.653Z,14.4
2022-11-16T13:03:30.706Z,14.4
2022-11-16T13:05:56.810Z,14.4
2022-11-16T13:08:22.900Z,14.4
2022-11-16T13:10:48.984Z,14.4
2022-11-16T13:13:15.087Z,14.4
2022-11-16T13:15:41.185Z,14.4
2022-11-16T13:18:07.319Z,14.4
2022-11-16T13:20:33.385Z,14.4
2022-11-16T13:22:59.477Z,14.3
2022-11-16T13:25:25.567Z,14.4
2022-11-16T13:27:51.652Z,14.4
2022-11-16T13:30:17.755Z,14.4
2022-11-16T13:32:42.886Z,14.4
2022-11-16T13:35:08.970Z,14.4
2022-11-16T13:37:35.053Z,14.4
2022-11-16T13:40:01.165Z,14.4
2022-11-16T13:42:27.243Z,14.4
2022-11-16T13:44:53.350Z,14.5
2022-11-16T13:47:19.448Z,14.5
2022-11-16T13:49:45.541Z,14.6
2022-11-16T13:52:11.648Z,14.7
2022-11-16T13:54:37.755Z,14.7
2022-11-16T13:57:03.832Z,14.8
2022-11-16T13:59:29.936Z,14.7
2022-11-16T14:01:56.028Z,14.7
2022-11-16T14:04:21.133Z,14.6
2022-11-16T14:06:47.261Z,14.4
2022-11-16T14:09:13.380Z,14.4
2022-11-16T14:11:39.412Z,14.3
2022-11-16T14:14:05.631Z,14.2
2022-11-16T14:16:31.633Z,14.2
2022-11-16T14:18:57.709Z,14.1
2022-11-16T14:21:23.856Z,14.1
2022-11-16T14:23:49.891Z,14.1
2022-11-16T14:26:15.997Z,14.1
2022-11-16T14:28:42.094Z,14
2022-11-16T14:31:08.203Z,14
2022-11-16T14:33:34.327Z,14
2022-11-16T14:35:59.429Z,14
2022-11-16T14:38:25.496Z,14
2022-11-16T14:40:51.625Z,14
2022-11-16T14:43:17.701Z,13.9
2022-11-16T14:45:43.769Z,13.9
2022-11-16T14:48:09.891Z,13.9
2022-11-16T14:50:35.990Z,13.8
2022-11-16T14:53:02.067Z,13.8
2022-11-16T14:55:28.150Z,13.6
2022-11-16T14:57:54.246Z,13.4
2022-11-16T15:00:20.369Z,13.3
2022-11-16T15:02:46.440Z,13.2
2022-11-16T15:05:12.566Z,13.1
2022-11-16T15:07:37.655Z,13
2022-11-16T15:10:03.761Z,12.9
2022-11-16T15:12:29.842Z,12.7
2022-11-16T15:14:55.948Z,12.6
2022-11-16T15:17:22.036Z,12.4
2022-11-16T15:19:48.141Z,12.2
2022-11-16T15:22:14.235Z,12
2022-11-16T15:24:40.330Z,11.9
2022-11-16T15:27:06.419Z,11.8
2022-11-16T15:29:32.526Z,11.6
2022-11-16T15:31:58.609Z,11.5
2022-11-16T15:34:24.764Z,11.4
2022-11-16T15:36:50.816Z,11.3
2022-11-16T15:39:15.945Z,11.3
2022-11-16T15:41:42.014Z,11.2
2022-11-16T15:44:08.476Z,11.2
2022-11-16T15:46:34.203Z,11.1
2022-11-16T15:49:00.291Z,11.1
2022-11-16T15:51:26.387Z,11.1
2022-11-16T15:53:52.503Z,11.1
2022-11-16T15:56:18.589Z,11.1
2022-11-16T15:58:44.690Z,11.1
2022-11-16T16:01:10.765Z,11
2022-11-16T16:03:36.935Z,10.9
2022-11-16T16:06:02.970Z,10.9
2022-11-16T16:08:29.059Z,10.8
2022-11-16T16:10:54.177Z,10.7
2022-11-16T16:13:20.278Z,10.7
2022-11-16T16:15:46.478Z,10.6
2022-11-16T16:18:12.450Z,10.5
2022-11-16T16:20:38.568Z,10.5
2022-11-16T16:23:04.647Z,10.4
2022-11-16T16:25:30.743Z,10.3
2022-11-16T16:27:56.846Z,10.2
2022-11-16T16:30:22.959Z,10.1
2022-11-16T16:32:49.031Z,10
2022-11-16T16:35:15.236Z,10
2022-11-16T16:37:41.244Z,9.9
2022-11-16T16:40:07.332Z,9.8
2022-11-16T16:42:32.440Z,9.7
2022-11-16T16:44:58.561Z,9.7
2022-11-16T16:47:24.615Z,9.5
2022-11-16T16:49:50.729Z,9.5
2022-11-16T16:52:16.835Z,9.4
2022-11-16T16:54:42.969Z,9.3
2022-11-16T16:57:09.153Z,9.3
2022-11-16T16:59:35.210Z,9.3
2022-11-16T17:02:01.314Z,9.2
2022-11-16T17:04:27.411Z,9.1
2022-11-16T17:06:53.484Z,9.1
2022-11-16T17:09:19.625Z,9
2022-11-16T17:11:45.698Z,9
2022-11-16T17:14:11.791Z,8.9
2022-11-16T17:16:37.953Z,8.8
2022-11-16T17:19:03.991Z,8.8
2022-11-16T17:21:30.088Z,8.7
2022-11-16T17:23:56.220Z,8.7
2022-11-16T17:26:22.286Z,8.7
2022-11-16T17:28:47.376Z,8.6
2022-11-16T17:31:13.489Z,8.6
2022-11-16T17:33:39.616Z,8.5
2022-11-16T17:36:05.684Z,8.5
2022-11-16T17:38:31.789Z,8.4
2022-11-16T17:40:57.869Z,8.4
2022-11-16T17:43:23.961Z,8.3
2022-11-16T17:45:50.064Z,8.3
2022-11-16T17:48:16.161Z,8.3
2022-11-16T17:50:42.251Z,8.3
2022-11-16T17:53:08.341Z,8.3
2022-11-16T17:55:34.443Z,8.3
2022-11-16T17:58:00.542Z,8.3
2022-11-16T18:00:25.662Z,8.2
2022-11-16T18:02:51.739Z,8.2
2022-11-16T18:05:17.893Z,8.2
2022-11-16T18:07:43.973Z,8.1
2022-11-16T18:10:10.047Z,8.2
2022-11-16T18:12:36.111Z,8.2
2022-11-16T18:15:02.215Z,8.1
2022-11-16T18:17:28.358Z,8.1
2022-11-16T18:19:54.406Z,8.1
2022-11-16T18:22:20.508Z,8
2022-11-16T18:24:46.615Z,8.2
2022-11-16T18:27:12.702Z,8.2
2022-11-16T18:29:38.793Z,8.2
2022-11-16T18:32:03.952Z,8.3
2022-11-16T18:34:30.013Z,8.2
2022-11-16T18:36:56.181Z,8.1
2022-11-16T18:39:22.211Z,8.1
2022-11-16T18:41:48.274Z,8
2022-11-16T18:44:14.423Z,8.1
2022-11-16T18:46:40.480Z,8.1
2022-11-16T18:49:06.568Z,8.1
2022-11-16T18:51:32.664Z,8.2
2022-11-16T18:53:58.810Z,8.3
2022-11-16T18:56:24.864Z,8.3
2022-11-16T18:58:50.952Z,8.4
2022-11-16T19:01:17.046Z,8.4
2022-11-16T19:03:42.154Z,8.4
2022-11-16T19:06:08.260Z,8.4
2022-11-16T19:08:34.349Z,8.3
2022-11-16T19:11:00.469Z,8.3
2022-11-16T19:13:26.534Z,8.3
2022-11-16T19:15:52.651Z,8.4
2022-11-16T19:18:18.735Z,8.4
2022-11-16T19:20:44.837Z,8.3
2022-11-16T19:23:10.982Z,8.3
2022-11-16T19:25:37.077Z,8.3
2022-11-16T19:28:03.184Z,8.3
2022-11-16T19:30:29.217Z,8.3
2022-11-16T19:32:55.377Z,8.1
2022-11-16T19:35:20.421Z,7.9
2022-11-16T19:37:46.524Z,7.8
2022-11-16T19:40:12.607Z,7.6
2022-11-16T19:42:38.795Z,7.6
2022-11-16T19:45:04.812Z,7.6
2022-11-16T19:47:30.931Z,7.5
2022-11-16T19:49:57.017Z,7.3
2022-11-16T19:52:23.097Z,7.2
2022-11-16T19:54:49.238Z,7.1
2022-11-16T19:57:15.276Z,7.1
2022-11-16T19:59:41.387Z,7
2022-11-16T20:02:07.614Z,7
2022-11-16T20:04:33.616Z,7
2022-11-16T20:06:58.683Z,7
2022-11-16T20:09:24.810Z,7
2022-11-16T20:11:50.915Z,6.9
2022-11-16T20:14:17.100Z,7
2022-11-16T20:16:43.156Z,7
2022-11-16T20:19:09.248Z,7
2022-11-16T20:21:35.334Z,7
2022-11-16T20:24:01.352Z,7
2022-11-16T20:26:27.477Z,7.1
2022-11-16T20:28:53.656Z,7.1
2022-11-16T20:31:19.647Z,7
2022-11-16T20:33:45.742Z,6.9
2022-11-16T20:36:11.891Z,7
2022-11-16T20:38:36.963Z,7
2022-11-16T20:41:03.071Z,7.1
2022-11-16T20:43:29.148Z,7.3
2022-11-16T20:45:55.228Z,7.3
2022-11-16T20:48:21.337Z,7.4
2022-11-16T20:50:47.440Z,7.5
2022-11-16T20:53:13.525Z,7.4
2022-11-16T20:55:39.623Z,7.5
2022-11-16T20:58:05.712Z,7.5
2022-11-16T21:00:32.366Z,7.5
2022-11-16T21:02:57.916Z,7.4
2022-11-16T21:05:23.999Z,7.5
2022-11-16T21:07:50.107Z,7.4
2022-11-16T21:10:15.224Z,7.4
2022-11-16T21:12:41.316Z,7.3
2022-11-16T21:15:07.430Z,7.3
2022-11-16T21:17:33.503Z,7.1
2022-11-16T21:19:59.607Z,7
2022-11-16T21:22:25.783Z,6.9
2022-11-16T21:24:51.899Z,6.8
2022-11-16T21:27:17.884Z,6.6
2022-11-16T21:29:43.987Z,6.5
2022-11-16T21:32:10.127Z,6.5
2022-11-16T21:34:36.262Z,6.5
2022-11-16T21:37:02.267Z,6.6
2022-11-16T21:39:28.356Z,6.5
2022-11-16T21:41:53.539Z,6.5
2022-11-16T21:44:19.658Z,6.5
2022-11-16T21:46:45.678Z,6.6
2022-11-16T21:49:11.755Z,6.7
2022-11-16T21:51:37.870Z,6.7
2022-11-16T21:54:03.983Z,6.8
2022-11-16T21:56:30.050Z,6.9
2022-11-16T21:58:56.194Z,7
2022-11-16T22:01:22.256Z,7.1
2022-11-16T22:03:48.426Z,6.9
2022-11-16T22:06:14.441Z,6.7
2022-11-16T22:08:40.527Z,6.8
2022-11-16T22:11:06.621Z,6.8
2022-11-16T22:13:31.735Z,6.8
2022-11-16T22:15:57.835Z,6.9
2022-11-16T22:18:23.942Z,6.9
2022-11-16T22:20:50.026Z,6.9
2022-11-16T22:23:16.123Z,6.9
2022-11-16T22:25:42.223Z,6.9
2022-11-16T22:28:08.361Z,6.8
2022-11-16T22:30:34.407Z,6.8
2022-11-16T22:33:00.495Z,6.8
2022-11-16T22:35:26.657Z,6.7
2022-11-16T22:37:52.696Z,6.7
2022-11-16T22:40:18.776Z,6.7
2022-11-16T22:42:44.882Z,6.8
2022-11-16T22:45:10.000Z,6.8
2022-11-16T22:47:36.102Z,6.8
2022-11-16T22:50:02.196Z,6.8
2022-11-16T22:52:28.272Z,6.7
2022-11-16T22:54:54.374Z,6.6
2022-11-16T22:57:20.494Z,6.7
2022-11-16T22:59:46.587Z,6.7
2022-11-16T23:02:12.667Z,6.7
2022-11-16T23:04:38.773Z,6.8
2022-11-16T23:07:04.861Z,6.9
2022-11-16T23:09:30.963Z,7
2022-11-16T23:11:57.069Z,7.1
2022-11-16T23:14:23.151Z,7.1
2022-11-16T23:16:48.252Z,7.2
2022-11-16T23:19:14.348Z,7.2
2022-11-16T23:21:40.452Z,7.3
2022-11-16T23:24:06.537Z,7.3
2022-11-16T23:26:32.708Z,7.3
2022-11-16T23:28:58.889Z,7.3
2022-11-16T23:31:24.829Z,7.3
2022-11-16T23:33:50.928Z,7.3
2022-11-16T23:36:17.133Z,7.3
2022-11-16T23:38:43.135Z,7.3
2022-11-16T23:41:09.222Z,7.3
2022-11-16T23:43:35.330Z,7.3
2022-11-16T23:46:01.420Z,7.3
2022-11-16T23:48:26.522Z,7.3
2022-11-16T23:50:52.687Z,7.3
2022-11-16T23:53:18.710Z,7.3
2022-11-16T23:55:44.896Z,7.3
2022-11-16T23:58:10.900Z,7.3
